Pikeville, North Carolina
Current Conditions -  °F | °C
As of 11:15 AM on Sunday 25 Jan 2015 (Local Time) from KGWW Reporting Station
Clear Clear  
Wind Chill: 47°   Ceiling: Unl
Heat Index: 47°   Visibility: 10mi
Dew Point: 32°   Wind: 0mph
Humidity: 56%   Direction: NA
Pressure: 29.96"   Gusts: NA
Location:  35.5°N, 77.98°W
Report Text: KGWW 251615Z AUTO 00000KT 10SM CLR 08/00 A2996 RMK AO2 T00840001
Loading
Personal Weather Stations






























Interactive Weather Map New forecast layout! Learn more

10-Day Weather Forecast

Advertisements
Track Severe Weather on mobile